sensor_id;sensor_type;location;lat;lon;timestamp;P1;durP1;ratioP1;P2;durP2;ratioP2
19113;SDS011;9689;51.052;13.772;2024-01-10T00:03:02;66.50;;;21.65;;
19113;SDS011;9689;51.052;13.772;2024-01-10T00:08:03;78.30;;;26.08;;
19113;SDS011;9689;51.052;13.772;2024-01-10T00:13:06;73.60;;;25.17;;
19113;SDS011;9689;51.052;13.772;2024-01-10T00:18:07;57.90;;;22.90;;
19113;SDS011;9689;51.052;13.772;2024-01-10T00:23:08;68.18;;;22.60;;
19113;SDS011;9689;51.052;13.772;2024-01-10T00:28:10;78.53;;;24.20;;
19113;SDS011;9689;51.052;13.772;2024-01-10T00:33:11;62.83;;;21.08;;
19113;SDS011;9689;51.052;13.772;2024-01-10T00:38:12;74.40;;;23.63;;
19113;SDS011;9689;51.052;13.772;2024-01-10T00:43:15;68.85;;;24.17;;
19113;SDS011;9689;51.052;13.772;2024-01-10T00:48:15;71.10;;;24.48;;
19113;SDS011;9689;51.052;13.772;2024-01-10T00:53:16;66.68;;;25.02;;
19113;SDS011;9689;51.052;13.772;2024-01-10T00:58:19;76.88;;;24.40;;
19113;SDS011;9689;51.052;13.772;2024-01-10T01:03:19;76.10;;;24.80;;
19113;SDS011;9689;51.052;13.772;2024-01-10T01:08:20;75.40;;;24.75;;
19113;SDS011;9689;51.052;13.772;2024-01-10T01:13:22;82.47;;;25.58;;
19113;SDS011;9689;51.052;13.772;2024-01-10T01:18:23;77.75;;;24.27;;
19113;SDS011;9689;51.052;13.772;2024-01-10T01:23:24;68.55;;;25.70;;
19113;SDS011;9689;51.052;13.772;2024-01-10T01:28:41;69.28;;;24.38;;
19113;SDS011;9689;51.052;13.772;2024-01-10T01:33:41;71.43;;;25.73;;
19113;SDS011;9689;51.052;13.772;2024-01-10T01:38:42;70.70;;;24.20;;
19113;SDS011;9689;51.052;13.772;2024-01-10T01:43:44;72.60;;;24.05;;
19113;SDS011;9689;51.052;13.772;2024-01-10T01:48:45;74.43;;;24.15;;
19113;SDS011;9689;51.052;13.772;2024-01-10T01:53:46;61.72;;;23.25;;
19113;SDS011;9689;51.052;13.772;2024-01-10T01:58:50;71.07;;;22.42;;
19113;SDS011;9689;51.052;13.772;2024-01-10T02:03:52;73.07;;;23.92;;
19113;SDS011;9689;51.052;13.772;2024-01-10T02:08:55;82.13;;;25.33;;
19113;SDS011;9689;51.052;13.772;2024-01-10T02:13:57;76.05;;;25.10;;
19113;SDS011;9689;51.052;13.772;2024-01-10T02:18:58;75.95;;;24.98;;
19113;SDS011;9689;51.052;13.772;2024-01-10T02:24:00;78.63;;;24.00;;
19113;SDS011;9689;51.052;13.772;2024-01-10T02:29:02;75.03;;;25.23;;
19113;SDS011;9689;51.052;13.772;2024-01-10T02:34:03;75.25;;;23.27;;
19113;SDS011;9689;51.052;13.772;2024-01-10T02:39:04;67.03;;;23.23;;
19113;SDS011;9689;51.052;13.772;2024-01-10T02:44:07;63.42;;;23.80;;
19113;SDS011;9689;51.052;13.772;2024-01-10T02:49:08;73.47;;;24.40;;
19113;SDS011;9689;51.052;13.772;2024-01-10T02:54:09;74.53;;;23.77;;
19113;SDS011;9689;51.052;13.772;2024-01-10T02:59:11;69.18;;;25.27;;
19113;SDS011;9689;51.052;13.772;2024-01-10T03:04:11;74.05;;;25.08;;
19113;SDS011;9689;51.052;13.772;2024-01-10T03:09:12;69.68;;;25.15;;
19113;SDS011;9689;51.052;13.772;2024-01-10T03:14:14;73.10;;;25.33;;
19113;SDS011;9689;51.052;13.772;2024-01-10T03:19:15;69.72;;;24.10;;
19113;SDS011;9689;51.052;13.772;2024-01-10T03:24:16;68.07;;;22.55;;
19113;SDS011;9689;51.052;13.772;2024-01-10T03:29:18;77.95;;;24.02;;
19113;SDS011;9689;51.052;13.772;2024-01-10T03:34:19;71.13;;;23.45;;
19113;SDS011;9689;51.052;13.772;2024-01-10T03:39:20;73.80;;;24.27;;
19113;SDS011;9689;51.052;13.772;2024-01-10T03:44:22;72.75;;;23.30;;
19113;SDS011;9689;51.052;13.772;2024-01-10T03:49:23;77.60;;;24.98;;
19113;SDS011;9689;51.052;13.772;2024-01-10T03:54:24;66.95;;;23.42;;
19113;SDS011;9689;51.052;13.772;2024-01-10T03:59:26;69.65;;;24.08;;
19113;SDS011;9689;51.052;13.772;2024-01-10T04:04:26;70.43;;;23.95;;
19113;SDS011;9689;51.052;13.772;2024-01-10T04:09:27;70.72;;;25.60;;
19113;SDS011;9689;51.052;13.772;2024-01-10T04:14:29;82.20;;;25.15;;
19113;SDS011;9689;51.052;13.772;2024-01-10T04:19:30;84.45;;;25.52;;
19113;SDS011;9689;51.052;13.772;2024-01-10T04:24:31;83.70;;;25.23;;
19113;SDS011;9689;51.052;13.772;2024-01-10T04:29:33;65.85;;;23.80;;
19113;SDS011;9689;51.052;13.772;2024-01-10T04:34:33;74.38;;;23.40;;
19113;SDS011;9689;51.052;13.772;2024-01-10T04:39:34;81.38;;;24.83;;
19113;SDS011;9689;51.052;13.772;2024-01-10T04:44:38;72.07;;;25.00;;
19113;SDS011;9689;51.052;13.772;2024-01-10T04:49:39;69.53;;;25.75;;
19113;SDS011;9689;51.052;13.772;2024-01-10T04:54:40;70.72;;;24.33;;
19113;SDS011;9689;51.052;13.772;2024-01-10T04:59:42;66.57;;;23.30;;
19113;SDS011;9689;51.052;13.772;2024-01-10T05:04:42;71.03;;;24.88;;
19113;SDS011;9689;51.052;13.772;2024-01-10T05:09:43;77.30;;;25.27;;
19113;SDS011;9689;51.052;13.772;2024-01-10T05:14:45;78.70;;;24.38;;
19113;SDS011;9689;51.052;13.772;2024-01-10T05:19:46;68.25;;;25.00;;
19113;SDS011;9689;51.052;13.772;2024-01-10T05:24:47;63.65;;;23.63;;
19113;SDS011;9689;51.052;13.772;2024-01-10T05:29:49;82.80;;;26.25;;
19113;SDS011;9689;51.052;13.772;2024-01-10T05:34:49;72.28;;;23.80;;
19113;SDS011;9689;51.052;13.772;2024-01-10T05:39:50;71.85;;;24.40;;
19113;SDS011;9689;51.052;13.772;2024-01-10T05:44:52;84.68;;;25.33;;
19113;SDS011;9689;51.052;13.772;2024-01-10T05:49:53;76.15;;;25.13;;
19113;SDS011;9689;51.052;13.772;2024-01-10T05:54:54;76.22;;;25.08;;
19113;SDS011;9689;51.052;13.772;2024-01-10T05:59:56;76.95;;;24.65;;
19113;SDS011;9689;51.052;13.772;2024-01-10T06:04:57;73.85;;;23.95;;
19113;SDS011;9689;51.052;13.772;2024-01-10T06:09:57;75.70;;;24.60;;
19113;SDS011;9689;51.052;13.772;2024-01-10T06:15:00;74.97;;;26.30;;
19113;SDS011;9689;51.052;13.772;2024-01-10T06:20:00;75.93;;;25.83;;
19113;SDS011;9689;51.052;13.772;2024-01-10T06:25:03;76.18;;;25.50;;
19113;SDS011;9689;51.052;13.772;2024-01-10T06:30:06;73.40;;;24.73;;
19113;SDS011;9689;51.052;13.772;2024-01-10T06:35:08;72.25;;;26.20;;
19113;SDS011;9689;51.052;13.772;2024-01-10T06:40:10;71.38;;;23.05;;
19113;SDS011;9689;51.052;13.772;2024-01-10T06:45:12;75.90;;;26.50;;
19113;SDS011;9689;51.052;13.772;2024-01-10T06:50:14;73.50;;;25.73;;
19113;SDS011;9689;51.052;13.772;2024-01-10T06:55:15;88.53;;;26.75;;
19113;SDS011;9689;51.052;13.772;2024-01-10T07:00:19;75.20;;;26.65;;
19113;SDS011;9689;51.052;13.772;2024-01-10T07:05:20;80.93;;;27.23;;
19113;SDS011;9689;51.052;13.772;2024-01-10T07:10:21;78.35;;;27.08;;
19113;SDS011;9689;51.052;13.772;2024-01-10T07:15:26;77.93;;;26.10;;
19113;SDS011;9689;51.052;13.772;2024-01-10T07:20:27;85.65;;;26.63;;
19113;SDS011;9689;51.052;13.772;2024-01-10T07:25:28;72.97;;;25.33;;
19113;SDS011;9689;51.052;13.772;2024-01-10T07:30:30;76.57;;;26.90;;
19113;SDS011;9689;51.052;13.772;2024-01-10T07:35:32;81.80;;;27.25;;
19113;SDS011;9689;51.052;13.772;2024-01-10T07:40:33;87.03;;;28.63;;
19113;SDS011;9689;51.052;13.772;2024-01-10T07:45:35;95.32;;;29.20;;
19113;SDS011;9689;51.052;13.772;2024-01-10T07:50:36;93.45;;;30.80;;
19113;SDS011;9689;51.052;13.772;2024-01-10T07:55:36;90.97;;;29.38;;
19113;SDS011;9689;51.052;13.772;2024-01-10T08:00:39;86.72;;;29.40;;
19113;SDS011;9689;51.052;13.772;2024-01-10T08:05:39;92.00;;;29.33;;
19113;SDS011;9689;51.052;13.772;2024-01-10T08:10:40;82.55;;;28.10;;
19113;SDS011;9689;51.052;13.772;2024-01-10T08:15:43;90.20;;;29.23;;
19113;SDS011;9689;51.052;13.772;2024-01-10T08:20:43;91.93;;;30.40;;
19113;SDS011;9689;51.052;13.772;2024-01-10T08:25:44;91.77;;;38.63;;
19113;SDS011;9689;51.052;13.772;2024-01-10T08:30:46;78.18;;;27.80;;
19113;SDS011;9689;51.052;13.772;2024-01-10T08:35:47;68.10;;;25.10;;
19113;SDS011;9689;51.052;13.772;2024-01-10T08:40:48;76.00;;;25.10;;
19113;SDS011;9689;51.052;13.772;2024-01-10T08:45:50;74.85;;;24.45;;
19113;SDS011;9689;51.052;13.772;2024-01-10T08:50:51;65.60;;;23.35;;
19113;SDS011;9689;51.052;13.772;2024-01-10T08:55:55;77.72;;;25.75;;
19113;SDS011;9689;51.052;13.772;2024-01-10T09:00:57;71.22;;;23.83;;
19113;SDS011;9689;51.052;13.772;2024-01-10T09:05:58;64.50;;;22.40;;
19113;SDS011;9689;51.052;13.772;2024-01-10T09:11:08;71.95;;;25.08;;
19113;SDS011;9689;51.052;13.772;2024-01-10T09:16:11;56.90;;;22.50;;
19113;SDS011;9689;51.052;13.772;2024-01-10T09:21:12;61.33;;;22.00;;
19113;SDS011;9689;51.052;13.772;2024-01-10T09:26:13;53.00;;;21.73;;
19113;SDS011;9689;51.052;13.772;2024-01-10T09:31:16;68.95;;;23.27;;
19113;SDS011;9689;51.052;13.772;2024-01-10T09:36:17;60.55;;;22.08;;
19113;SDS011;9689;51.052;13.772;2024-01-10T09:41:18;66.03;;;23.45;;
19113;SDS011;9689;51.052;13.772;2024-01-10T09:46:20;66.22;;;22.55;;
19113;SDS011;9689;51.052;13.772;2024-01-10T09:51:22;70.75;;;22.48;;
19113;SDS011;9689;51.052;13.772;2024-01-10T09:56:23;68.22;;;24.00;;
19113;SDS011;9689;51.052;13.772;2024-01-10T10:01:26;64.40;;;24.58;;
19113;SDS011;9689;51.052;13.772;2024-01-10T10:06:27;64.68;;;22.35;;
19113;SDS011;9689;51.052;13.772;2024-01-10T10:11:28;56.22;;;22.45;;
19113;SDS011;9689;51.052;13.772;2024-01-10T10:16:31;60.70;;;22.75;;
19113;SDS011;9689;51.052;13.772;2024-01-10T10:21:31;76.22;;;23.98;;
19113;SDS011;9689;51.052;13.772;2024-01-10T10:26:33;63.28;;;20.92;;
19113;SDS011;9689;51.052;13.772;2024-01-10T10:31:36;58.88;;;21.45;;
19113;SDS011;9689;51.052;13.772;2024-01-10T10:36:37;63.35;;;22.17;;
19113;SDS011;9689;51.052;13.772;2024-01-10T10:41:37;59.80;;;22.27;;
19113;SDS011;9689;51.052;13.772;2024-01-10T10:46:41;51.80;;;21.42;;
19113;SDS011;9689;51.052;13.772;2024-01-10T10:51:47;68.07;;;21.77;;
19113;SDS011;9689;51.052;13.772;2024-01-10T10:56:48;61.63;;;23.20;;
19113;SDS011;9689;51.052;13.772;2024-01-10T11:01:57;66.32;;;22.50;;
19113;SDS011;9689;51.052;13.772;2024-01-10T11:06:58;54.30;;;21.17;;
19113;SDS011;9689;51.052;13.772;2024-01-10T11:12:10;57.35;;;20.67;;
19113;SDS011;9689;51.052;13.772;2024-01-10T11:17:33;64.90;;;20.75;;
19113;SDS011;9689;51.052;13.772;2024-01-10T11:28:57;66.38;;;22.38;;
19113;SDS011;9689;51.052;13.772;2024-01-10T11:34:01;54.08;;;20.25;;
19113;SDS011;9689;51.052;13.772;2024-01-10T11:39:03;55.45;;;20.40;;
19113;SDS011;9689;51.052;13.772;2024-01-10T11:44:27;49.63;;;19.17;;
19113;SDS011;9689;51.052;13.772;2024-01-10T11:49:31;50.03;;;19.02;;
19113;SDS011;9689;51.052;13.772;2024-01-10T11:54:35;50.88;;;20.67;;
19113;SDS011;9689;51.052;13.772;2024-01-10T11:59:37;56.83;;;18.98;;
19113;SDS011;9689;51.052;13.772;2024-01-10T12:04:39;44.60;;;18.90;;
19113;SDS011;9689;51.052;13.772;2024-01-10T12:09:47;46.03;;;18.75;;
19113;SDS011;9689;51.052;13.772;2024-01-10T12:14:50;47.55;;;20.65;;
19113;SDS011;9689;51.052;13.772;2024-01-10T12:19:53;49.00;;;18.70;;
19113;SDS011;9689;51.052;13.772;2024-01-10T12:24:54;46.35;;;17.20;;
19113;SDS011;9689;51.052;13.772;2024-01-10T12:29:55;43.05;;;17.75;;
19113;SDS011;9689;51.052;13.772;2024-01-10T12:35:00;45.40;;;17.20;;
19113;SDS011;9689;51.052;13.772;2024-01-10T12:40:03;42.42;;;17.40;;
19113;SDS011;9689;51.052;13.772;2024-01-10T12:45:20;40.40;;;15.63;;
19113;SDS011;9689;51.052;13.772;2024-01-10T12:50:22;45.90;;;16.70;;
19113;SDS011;9689;51.052;13.772;2024-01-10T12:55:25;39.97;;;15.40;;
19113;SDS011;9689;51.052;13.772;2024-01-10T13:00:27;35.15;;;15.73;;
19113;SDS011;9689;51.052;13.772;2024-01-10T13:05:30;33.80;;;14.60;;
19113;SDS011;9689;51.052;13.772;2024-01-10T13:10:31;38.25;;;14.55;;
19113;SDS011;9689;51.052;13.772;2024-01-10T13:15:32;32.58;;;13.38;;
19113;SDS011;9689;51.052;13.772;2024-01-10T13:20:34;30.40;;;11.30;;
19113;SDS011;9689;51.052;13.772;2024-01-10T13:25:35;30.00;;;11.48;;
19113;SDS011;9689;51.052;13.772;2024-01-10T13:30:36;22.42;;;9.80;;
19113;SDS011;9689;51.052;13.772;2024-01-10T13:35:38;19.95;;;8.32;;
19113;SDS011;9689;51.052;13.772;2024-01-10T13:40:39;14.98;;;6.35;;
19113;SDS011;9689;51.052;13.772;2024-01-10T13:45:42;15.23;;;6.93;;
19113;SDS011;9689;51.052;13.772;2024-01-10T13:50:44;15.65;;;6.35;;
19113;SDS011;9689;51.052;13.772;2024-01-10T13:55:45;17.02;;;6.75;;
19113;SDS011;9689;51.052;13.772;2024-01-10T14:00:46;10.32;;;4.32;;
19113;SDS011;9689;51.052;13.772;2024-01-10T14:05:48;11.95;;;4.95;;
19113;SDS011;9689;51.052;13.772;2024-01-10T14:10:49;10.35;;;4.88;;
19113;SDS011;9689;51.052;13.772;2024-01-10T14:15:50;12.98;;;5.28;;
19113;SDS011;9689;51.052;13.772;2024-01-10T14:20:52;11.25;;;4.63;;
19113;SDS011;9689;51.052;13.772;2024-01-10T14:25:53;11.82;;;4.90;;
19113;SDS011;9689;51.052;13.772;2024-01-10T14:30:54;8.57;;;4.35;;
19113;SDS011;9689;51.052;13.772;2024-01-10T14:36:19;12.23;;;4.72;;
19113;SDS011;9689;51.052;13.772;2024-01-10T14:41:37;12.80;;;4.85;;
19113;SDS011;9689;51.052;13.772;2024-01-10T14:46:37;12.13;;;4.60;;
19113;SDS011;9689;51.052;13.772;2024-01-10T14:51:43;12.68;;;4.57;;
19113;SDS011;9689;51.052;13.772;2024-01-10T14:56:46;10.35;;;4.88;;
19113;SDS011;9689;51.052;13.772;2024-01-10T15:01:48;11.50;;;4.47;;
19113;SDS011;9689;51.052;13.772;2024-01-10T15:06:50;14.18;;;5.13;;
19113;SDS011;9689;51.052;13.772;2024-01-10T15:11:52;14.35;;;4.82;;
19113;SDS011;9689;51.052;13.772;2024-01-10T15:16:53;11.45;;;4.60;;
19113;SDS011;9689;51.052;13.772;2024-01-10T15:21:57;11.38;;;4.63;;
19113;SDS011;9689;51.052;13.772;2024-01-10T15:26:59;9.27;;;4.30;;
19113;SDS011;9689;51.052;13.772;2024-01-10T15:32:05;11.25;;;4.95;;
19113;SDS011;9689;51.052;13.772;2024-01-10T15:37:10;11.95;;;5.45;;
19113;SDS011;9689;51.052;13.772;2024-01-10T15:42:11;10.38;;;5.13;;
19113;SDS011;9689;51.052;13.772;2024-01-10T15:47:12;10.68;;;4.88;;
19113;SDS011;9689;51.052;13.772;2024-01-10T15:52:14;16.58;;;6.40;;
19113;SDS011;9689;51.052;13.772;2024-01-10T15:57:15;14.50;;;5.68;;
19113;SDS011;9689;51.052;13.772;2024-01-10T16:02:16;14.38;;;5.55;;
19113;SDS011;9689;51.052;13.772;2024-01-10T16:07:18;13.73;;;5.03;;
19113;SDS011;9689;51.052;13.772;2024-01-10T16:12:21;15.05;;;5.85;;
19113;SDS011;9689;51.052;13.772;2024-01-10T16:17:23;12.25;;;5.93;;
19113;SDS011;9689;51.052;13.772;2024-01-10T16:22:25;14.30;;;5.82;;
19113;SDS011;9689;51.052;13.772;2024-01-10T16:27:27;17.98;;;6.40;;
19113;SDS011;9689;51.052;13.772;2024-01-10T16:32:28;17.65;;;5.68;;
19113;SDS011;9689;51.052;13.772;2024-01-10T16:37:30;16.20;;;5.80;;
19113;SDS011;9689;51.052;13.772;2024-01-10T16:42:31;14.25;;;5.90;;
19113;SDS011;9689;51.052;13.772;2024-01-10T16:47:34;15.55;;;6.53;;
19113;SDS011;9689;51.052;13.772;2024-01-10T16:52:37;19.02;;;7.80;;
19113;SDS011;9689;51.052;13.772;2024-01-10T16:57:38;15.45;;;6.90;;
19113;SDS011;9689;51.052;13.772;2024-01-10T17:02:40;19.13;;;6.65;;
19113;SDS011;9689;51.052;13.772;2024-01-10T17:07:42;18.95;;;6.95;;
19113;SDS011;9689;51.052;13.772;2024-01-10T17:12:43;23.77;;;7.70;;
19113;SDS011;9689;51.052;13.772;2024-01-10T17:17:44;22.95;;;8.40;;
19113;SDS011;9689;51.052;13.772;2024-01-10T17:22:47;25.30;;;8.93;;
19113;SDS011;9689;51.052;13.772;2024-01-10T17:27:48;22.83;;;8.70;;
19113;SDS011;9689;51.052;13.772;2024-01-10T17:32:49;26.83;;;10.57;;
19113;SDS011;9689;51.052;13.772;2024-01-10T17:37:51;28.00;;;10.90;;
19113;SDS011;9689;51.052;13.772;2024-01-10T17:42:52;32.22;;;13.20;;
19113;SDS011;9689;51.052;13.772;2024-01-10T17:47:53;33.80;;;12.43;;
19113;SDS011;9689;51.052;13.772;2024-01-10T17:52:56;35.47;;;12.23;;
19113;SDS011;9689;51.052;13.772;2024-01-10T17:57:57;34.70;;;11.60;;
19113;SDS011;9689;51.052;13.772;2024-01-10T18:02:57;26.83;;;10.25;;
19113;SDS011;9689;51.052;13.772;2024-01-10T18:08:00;30.33;;;10.63;;
19113;SDS011;9689;51.052;13.772;2024-01-10T18:13:00;28.98;;;10.20;;
19113;SDS011;9689;51.052;13.772;2024-01-10T18:18:03;32.55;;;11.45;;
19113;SDS011;9689;51.052;13.772;2024-01-10T18:23:06;30.77;;;12.07;;
19113;SDS011;9689;51.052;13.772;2024-01-10T18:28:07;33.00;;;11.95;;
19113;SDS011;9689;51.052;13.772;2024-01-10T18:33:08;30.02;;;10.75;;
19113;SDS011;9689;51.052;13.772;2024-01-10T18:38:11;40.15;;;12.38;;
19113;SDS011;9689;51.052;13.772;2024-01-10T18:43:15;29.35;;;12.32;;
19113;SDS011;9689;51.052;13.772;2024-01-10T18:48:16;39.35;;;13.75;;
19113;SDS011;9689;51.052;13.772;2024-01-10T18:53:19;30.80;;;12.30;;
19113;SDS011;9689;51.052;13.772;2024-01-10T18:58:20;39.30;;;13.88;;
19113;SDS011;9689;51.052;13.772;2024-01-10T19:03:21;41.90;;;16.30;;
19113;SDS011;9689;51.052;13.772;2024-01-10T19:08:23;47.70;;;19.58;;
19113;SDS011;9689;51.052;13.772;2024-01-10T19:13:24;47.60;;;17.83;;
19113;SDS011;9689;51.052;13.772;2024-01-10T19:18:25;45.00;;;15.15;;
19113;SDS011;9689;51.052;13.772;2024-01-10T19:23:29;48.92;;;16.80;;
19113;SDS011;9689;51.052;13.772;2024-01-10T19:28:30;38.00;;;15.23;;
19113;SDS011;9689;51.052;13.772;2024-01-10T19:33:31;40.05;;;16.42;;
19113;SDS011;9689;51.052;13.772;2024-01-10T19:38:33;48.33;;;17.25;;
19113;SDS011;9689;51.052;13.772;2024-01-10T19:43:34;49.13;;;17.48;;
19113;SDS011;9689;51.052;13.772;2024-01-10T19:48:35;43.72;;;16.42;;
19113;SDS011;9689;51.052;13.772;2024-01-10T19:53:38;53.05;;;17.33;;
19113;SDS011;9689;51.052;13.772;2024-01-10T19:58:40;40.38;;;15.80;;
19113;SDS011;9689;51.052;13.772;2024-01-10T20:03:41;40.05;;;16.17;;
19113;SDS011;9689;51.052;13.772;2024-01-10T20:08:43;48.95;;;18.17;;
19113;SDS011;9689;51.052;13.772;2024-01-10T20:13:46;49.65;;;17.58;;
19113;SDS011;9689;51.052;13.772;2024-01-10T20:18:46;44.83;;;18.58;;
19113;SDS011;9689;51.052;13.772;2024-01-10T20:23:49;46.63;;;16.27;;
19113;SDS011;9689;51.052;13.772;2024-01-10T20:28:50;45.47;;;17.75;;
19113;SDS011;9689;51.052;13.772;2024-01-10T20:33:51;48.33;;;17.10;;
19113;SDS011;9689;51.052;13.772;2024-01-10T20:38:54;52.95;;;19.85;;
19113;SDS011;9689;51.052;13.772;2024-01-10T20:43:55;55.03;;;20.15;;
19113;SDS011;9689;51.052;13.772;2024-01-10T20:48:57;48.55;;;19.95;;
19113;SDS011;9689;51.052;13.772;2024-01-10T20:54:00;46.67;;;19.27;;
19113;SDS011;9689;51.052;13.772;2024-01-10T20:59:01;49.88;;;19.35;;
19113;SDS011;9689;51.052;13.772;2024-01-10T21:04:03;49.95;;;18.60;;
19113;SDS011;9689;51.052;13.772;2024-01-10T21:09:05;46.33;;;19.58;;
19113;SDS011;9689;51.052;13.772;2024-01-10T21:14:06;59.35;;;18.90;;
19113;SDS011;9689;51.052;13.772;2024-01-10T21:19:07;59.40;;;20.27;;
19113;SDS011;9689;51.052;13.772;2024-01-10T21:24:10;53.67;;;18.63;;
19113;SDS011;9689;51.052;13.772;2024-01-10T21:29:12;47.95;;;19.73;;
19113;SDS011;9689;51.052;13.772;2024-01-10T21:34:13;56.15;;;20.67;;
19113;SDS011;9689;51.052;13.772;2024-01-10T21:39:16;53.97;;;20.48;;
19113;SDS011;9689;51.052;13.772;2024-01-10T21:44:17;51.47;;;19.95;;
19113;SDS011;9689;51.052;13.772;2024-01-10T21:49:20;59.03;;;21.00;;
19113;SDS011;9689;51.052;13.772;2024-01-10T21:54:22;47.20;;;18.17;;
19113;SDS011;9689;51.052;13.772;2024-01-10T21:59:24;49.70;;;19.63;;
19113;SDS011;9689;51.052;13.772;2024-01-10T22:04:25;57.70;;;20.05;;
19113;SDS011;9689;51.052;13.772;2024-01-10T22:09:27;43.25;;;17.60;;
19113;SDS011;9689;51.052;13.772;2024-01-10T22:14:28;57.53;;;18.88;;
19113;SDS011;9689;51.052;13.772;2024-01-10T22:19:28;40.83;;;17.08;;
19113;SDS011;9689;51.052;13.772;2024-01-10T22:24:30;53.58;;;19.05;;
19113;SDS011;9689;51.052;13.772;2024-01-10T22:29:31;49.85;;;17.77;;
19113;SDS011;9689;51.052;13.772;2024-01-10T22:34:32;45.67;;;17.13;;
19113;SDS011;9689;51.052;13.772;2024-01-10T22:39:35;49.17;;;18.98;;
19113;SDS011;9689;51.052;13.772;2024-01-10T22:44:36;53.78;;;18.60;;
19113;SDS011;9689;51.052;13.772;2024-01-10T22:49:37;53.75;;;19.65;;
19113;SDS011;9689;51.052;13.772;2024-01-10T22:54:39;50.58;;;18.27;;
19113;SDS011;9689;51.052;13.772;2024-01-10T22:59:40;54.33;;;19.65;;
19113;SDS011;9689;51.052;13.772;2024-01-10T23:04:41;54.28;;;17.95;;
19113;SDS011;9689;51.052;13.772;2024-01-10T23:09:43;55.00;;;19.55;;
19113;SDS011;9689;51.052;13.772;2024-01-10T23:14:44;49.55;;;19.35;;
19113;SDS011;9689;51.052;13.772;2024-01-10T23:19:45;56.33;;;19.92;;
19113;SDS011;9689;51.052;13.772;2024-01-10T23:24:47;55.35;;;19.63;;
19113;SDS011;9689;51.052;13.772;2024-01-10T23:29:48;54.90;;;20.10;;
19113;SDS011;9689;51.052;13.772;2024-01-10T23:34:49;57.33;;;19.25;;
19113;SDS011;9689;51.052;13.772;2024-01-10T23:39:51;48.92;;;18.83;;
19113;SDS011;9689;51.052;13.772;2024-01-10T23:44:52;62.95;;;18.88;;
19113;SDS011;9689;51.052;13.772;2024-01-10T23:49:52;46.50;;;17.30;;
19113;SDS011;9689;51.052;13.772;2024-01-10T23:54:55;51.67;;;19.55;;
19113;SDS011;9689;51.052;13.772;2024-01-10T23:59:56;49.38;;;18.52;;
